MiSS Sarah — WDE9595 — position and weather

sailwx.info

Track history (hours):
 
Tides and Currents Weather Stations Pressure Air Temp Water Temp Dewpoint Dewpoint Depression Visibility Wind Speed Wind Dir Waves Ship Positions

MiSS Sarah

Owner: Higman Barge Lines, Inc, Orange, TX. More information available from US FCC via Universal Licensing System and Coast Guard Vessel Documentation Center.

Last reported at 2014-Oct-22 23:09 UTC. Time now 2014-Oct-23 01:45 UTC.
Position N 29°46' W 095°07'.

Length 24 m; draft 2.6 m.

Type: Towing. MMSI: 367419040.

Date/timePositionNaut miles runAvg speedWind from/ knotsBaromVisibWave heightAir tempDewpointWater temp
2014-Oct-22 23:09N 29°46' W 095°07'0 0.0
2014-Oct-22 20:31N 29°46' W 095°07'0 0.2
2014-Oct-22 19:30N 29°46' W 095°07'0 0.0
2014-Oct-22 18:31N 29°46' W 095°07'1 1.2
2014-Oct-22 17:33N 29°45' W 095°07'0 0.0
2014-Oct-22 16:33N 29°45' W 095°07'1 1.1
2014-Oct-22 15:33N 29°46' W 095°07'1 0.8
2014-Oct-22 14:32N 29°46' W 095°06'1 1.4
2014-Oct-22 13:33N 29°46' W 095°05'0 0.0
2014-Oct-22 12:33N 29°46' W 095°05'0 0.0
2014-Oct-22 11:23N 29°46' W 095°05'0 0.0
2014-Oct-22 10:33N 29°46' W 095°05'0 0.0
2014-Oct-22 09:33N 29°46' W 095°05'0 0.0
2014-Oct-22 08:33N 29°46' W 095°05'0 0.0
2014-Oct-22 07:33N 29°46' W 095°05'0 0.0
2014-Oct-22 06:33N 29°46' W 095°05'0 0.0
2014-Oct-22 05:33N 29°46' W 095°05'0 0.0
2014-Oct-22 04:33N 29°46' W 095°05'0 0.0
2014-Oct-22 03:33N 29°46' W 095°05'0 0.0
2014-Oct-22 02:33N 29°46' W 095°05'0 0.0
2014-Oct-22 01:33N 29°46' W 095°05'0 0.0
2014-Oct-22 00:33N 29°46' W 095°05'0 0.0
2014-Oct-21 23:33N 29°46' W 095°05'0 0.1
2014-Oct-21 22:34N 29°46' W 095°05'4 3.7
2014-Oct-21 21:33N 29°44' W 095°02'5 5.5
2014-Oct-21 20:33N 29°39' W 094°58'6 6.1
2014-Oct-21 19:33N 29°34' W 094°55'6 6.0
2014-Oct-21 18:33N 29°29' W 094°51'7 1.6
2014-Oct-21 14:03N 29°25' W 094°44'0 0.0
2014-Oct-21 13:17N 29°25' W 094°44'  
Track history (hours):
 
Tides and Currents Weather Stations Pressure Air Temp Water Temp Dewpoint Dewpoint Depression Visibility Wind Speed Wind Dir Waves Ship Positions

MiSS Sarah

Owner: Higman Barge Lines, Inc, Orange, TX. More information available from US FCC via Universal Licensing System and Coast Guard Vessel Documentation Center.

Last reported at 2014-Oct-22 23:09 UTC. Time now 2014-Oct-23 01:45 UTC.
Position N 29°46' W 095°07'.

Length 24 m; draft 2.6 m.

Type: Towing. MMSI: 367419040.

Date/timePositionNaut miles runAvg speedWind from/ knotsBaromVisibWave heightAir tempDewpointWater temp
2014-Oct-22 23:09N 29°46' W 095°07'0 0.0
2014-Oct-22 20:31N 29°46' W 095°07'0 0.2
2014-Oct-22 19:30N 29°46' W 095°07'0 0.0
2014-Oct-22 18:31N 29°46' W 095°07'1 1.2
2014-Oct-22 17:33N 29°45' W 095°07'0 0.0
2014-Oct-22 16:33N 29°45' W 095°07'1 1.1
2014-Oct-22 15:33N 29°46' W 095°07'1 0.8
2014-Oct-22 14:32N 29°46' W 095°06'1 1.4
2014-Oct-22 13:33N 29°46' W 095°05'0 0.0
2014-Oct-22 12:33N 29°46' W 095°05'0 0.0
2014-Oct-22 11:23N 29°46' W 095°05'0 0.0
2014-Oct-22 10:33N 29°46' W 095°05'0 0.0
2014-Oct-22 09:33N 29°46' W 095°05'0 0.0
2014-Oct-22 08:33N 29°46' W 095°05'0 0.0
2014-Oct-22 07:33N 29°46' W 095°05'0 0.0
2014-Oct-22 06:33N 29°46' W 095°05'0 0.0
2014-Oct-22 05:33N 29°46' W 095°05'0 0.0
2014-Oct-22 04:33N 29°46' W 095°05'0 0.0
2014-Oct-22 03:33N 29°46' W 095°05'0 0.0
2014-Oct-22 02:33N 29°46' W 095°05'0 0.0
2014-Oct-22 01:33N 29°46' W 095°05'0 0.0
2014-Oct-22 00:33N 29°46' W 095°05'0 0.0
2014-Oct-21 23:33N 29°46' W 095°05'0 0.1
2014-Oct-21 22:34N 29°46' W 095°05'4 3.7
2014-Oct-21 21:33N 29°44' W 095°02'5 5.5
2014-Oct-21 20:33N 29°39' W 094°58'6 6.1
2014-Oct-21 19:33N 29°34' W 094°55'6 6.0
2014-Oct-21 18:33N 29°29' W 094°51'7 1.6
2014-Oct-21 14:03N 29°25' W 094°44'0 0.0
2014-Oct-21 13:17N 29°25' W 094°44'  

Dump ship's entire track history